createdAt,value
2016-09-22T00:00:04.616Z,11.02
2016-09-22T00:00:45.154Z,11.06
2016-09-22T00:01:25.701Z,11
2016-09-22T00:02:06.239Z,11.07
2016-09-22T00:02:46.797Z,11
2016-09-22T00:03:27.322Z,11.03
2016-09-22T00:04:07.862Z,10.97
2016-09-22T00:04:48.406Z,11.06
2016-09-22T00:05:28.960Z,11.02
2016-09-22T00:06:09.501Z,11.02
2016-09-22T00:06:50.051Z,10.99
2016-09-22T00:07:30.594Z,11
2016-09-22T00:08:11.121Z,10.94
2016-09-22T00:08:51.656Z,11.04
2016-09-22T00:09:32.200Z,11.03
2016-09-22T00:10:12.747Z,10.91
2016-09-22T00:10:53.287Z,11
2016-09-22T00:11:33.834Z,10.99
2016-09-22T00:12:14.380Z,11.09
2016-09-22T00:12:54.932Z,11
2016-09-22T00:13:35.545Z,11.07
2016-09-22T00:14:16.081Z,11.03
2016-09-22T00:14:56.624Z,11.02
2016-09-22T00:15:37.171Z,11.03
2016-09-22T00:16:17.709Z,11.03
2016-09-22T00:16:58.242Z,10.96
2016-09-22T00:17:38.785Z,11.03
2016-09-22T00:18:19.325Z,10.99
2016-09-22T00:18:59.868Z,11.02
2016-09-22T00:19:40.407Z,10.94
2016-09-22T00:20:20.948Z,10.96
2016-09-22T00:21:01.482Z,11.04
2016-09-22T00:21:42.029Z,10.97
2016-09-22T00:22:22.563Z,10.97
2016-09-22T00:23:03.102Z,10.97
2016-09-22T00:23:43.633Z,10.96
2016-09-22T00:24:24.174Z,10.96
2016-09-22T00:25:04.711Z,10.94
2016-09-22T00:25:45.250Z,10.96
2016-09-22T00:26:25.789Z,10.96
2016-09-22T00:27:06.333Z,10.99
2016-09-22T00:27:46.870Z,10.99
2016-09-22T00:28:27.412Z,10.94
2016-09-22T00:29:07.953Z,10.92
2016-09-22T00:29:48.495Z,10.89
2016-09-22T00:30:29.039Z,10.86
2016-09-22T00:31:09.586Z,10.84
2016-09-22T00:31:50.130Z,10.88
2016-09-22T00:32:30.663Z,10.92
2016-09-22T00:33:11.207Z,10.86
2016-09-22T00:33:51.743Z,10.88
2016-09-22T00:34:32.287Z,10.91
2016-09-22T00:35:12.826Z,10.96
2016-09-22T00:35:53.376Z,10.89
2016-09-22T00:36:33.907Z,10.86
2016-09-22T00:37:14.445Z,10.86
2016-09-22T00:37:54.989Z,10.89
2016-09-22T00:38:35.531Z,10.91
2016-09-22T00:39:16.070Z,10.86
2016-09-22T00:39:56.607Z,10.92
2016-09-22T00:40:37.149Z,10.85
2016-09-22T00:41:17.680Z,10.89
2016-09-22T00:41:58.230Z,10.88
2016-09-22T00:42:38.763Z,10.88
2016-09-22T00:43:19.307Z,10.85
2016-09-22T00:43:59.846Z,10.86
2016-09-22T00:44:40.388Z,10.88
2016-09-22T00:45:20.927Z,10.84
2016-09-22T00:46:01.471Z,10.84
2016-09-22T00:46:42.005Z,10.88
2016-09-22T00:47:22.544Z,10.85
2016-09-22T00:48:03.087Z,10.88
2016-09-22T00:48:43.626Z,10.86
2016-09-22T00:49:24.166Z,10.78
2016-09-22T00:50:04.702Z,10.78
2016-09-22T00:50:45.247Z,10.78
2016-09-22T00:51:25.784Z,10.88
2016-09-22T00:52:06.310Z,10.81
2016-09-22T00:52:46.849Z,10.82
2016-09-22T00:53:27.411Z,10.78
2016-09-22T00:54:07.929Z,10.74
2016-09-22T00:54:48.469Z,10.82
2016-09-22T00:55:29.009Z,10.76
2016-09-22T00:56:09.548Z,10.7
2016-09-22T00:56:50.094Z,10.7
2016-09-22T00:57:30.647Z,10.68
2016-09-22T00:58:11.188Z,10.68
2016-09-22T00:58:51.729Z,10.66
2016-09-22T00:59:32.268Z,10.63
2016-09-22T01:00:12.803Z,10.66
2016-09-22T01:00:53.353Z,10.63
2016-09-22T01:01:33.893Z,10.6
2016-09-22T01:02:14.438Z,10.66
2016-09-22T01:02:54.982Z,10.61
2016-09-22T01:03:35.528Z,10.63
2016-09-22T01:04:16.077Z,10.63
2016-09-22T01:04:56.615Z,10.6
2016-09-22T01:05:37.155Z,10.67
2016-09-22T01:06:17.696Z,10.66
2016-09-22T01:06:58.234Z,10.68
2016-09-22T01:07:38.770Z,10.64
2016-09-22T01:08:19.303Z,10.61
2016-09-22T01:08:59.852Z,10.6
2016-09-22T01:09:40.385Z,10.63
2016-09-22T01:10:20.926Z,10.66
2016-09-22T01:11:01.459Z,10.59
2016-09-22T01:11:41.990Z,10.67
2016-09-22T01:12:22.531Z,10.66
2016-09-22T01:13:03.071Z,10.6
2016-09-22T01:13:43.599Z,10.63
2016-09-22T01:14:24.142Z,10.66
2016-09-22T01:15:04.684Z,10.66
2016-09-22T01:15:45.224Z,10.63
2016-09-22T01:16:25.765Z,10.66
2016-09-22T01:17:06.304Z,10.64
2016-09-22T01:17:46.839Z,10.59
2016-09-22T01:18:27.384Z,10.63
2016-09-22T01:19:07.919Z,10.64
2016-09-22T01:19:48.462Z,10.61
2016-09-22T01:20:29.005Z,10.64
2016-09-22T01:21:09.555Z,10.66
2016-09-22T01:21:50.098Z,10.59
2016-09-22T01:22:30.644Z,10.47
2016-09-22T01:23:11.181Z,10.48
2016-09-22T01:23:51.717Z,10.44
2016-09-22T01:24:32.256Z,10.47
2016-09-22T01:25:12.786Z,10.48
2016-09-22T01:25:53.330Z,10.48
2016-09-22T01:26:33.869Z,10.52
2016-09-22T01:27:14.395Z,10.52
2016-09-22T01:27:54.933Z,10.52
2016-09-22T01:28:35.480Z,10.53
2016-09-22T01:29:16.017Z,10.53
2016-09-22T01:29:56.557Z,10.53
2016-09-22T01:30:37.093Z,10.51
2016-09-22T01:31:17.622Z,10.52
2016-09-22T01:31:58.169Z,10.44
2016-09-22T01:32:38.708Z,10.42
2016-09-22T01:33:19.253Z,10.38
2016-09-22T01:33:59.787Z,10.41
2016-09-22T01:34:40.333Z,10.41
2016-09-22T01:35:20.879Z,10.41
2016-09-22T01:36:01.419Z,10.38
2016-09-22T01:36:41.955Z,10.41
2016-09-22T01:37:22.481Z,10.41
2016-09-22T01:38:03.027Z,10.41
2016-09-22T01:38:43.570Z,10.42
2016-09-22T01:39:24.115Z,10.4
2016-09-22T01:40:04.650Z,10.4
2016-09-22T01:40:45.188Z,10.36
2016-09-22T01:41:25.723Z,10.42
2016-09-22T01:42:06.253Z,10.4
2016-09-22T01:42:46.795Z,10.38
2016-09-22T01:43:27.330Z,10.32
2016-09-22T01:44:07.866Z,10.41
2016-09-22T01:44:48.411Z,10.41
2016-09-22T01:45:28.951Z,10.36
2016-09-22T01:46:09.491Z,10.41
2016-09-22T01:46:50.030Z,10.32
2016-09-22T01:47:30.556Z,10.3
2016-09-22T01:48:11.100Z,10.27
2016-09-22T01:48:51.642Z,10.29
2016-09-22T01:49:32.183Z,10.3
2016-09-22T01:50:12.722Z,10.32
2016-09-22T01:50:53.256Z,10.3
2016-09-22T01:51:33.799Z,10.33
2016-09-22T01:52:14.347Z,10.3
2016-09-22T01:52:54.887Z,10.25
2016-09-22T01:53:35.419Z,10.3
2016-09-22T01:54:15.953Z,10.25
2016-09-22T01:54:56.488Z,10.26
2016-09-22T01:55:37.034Z,10.29
2016-09-22T01:56:17.574Z,10.27
2016-09-22T01:56:58.109Z,10.3
2016-09-22T01:57:38.654Z,10.27
2016-09-22T01:58:19.189Z,10.27
2016-09-22T01:58:59.729Z,10.18
2016-09-22T01:59:40.266Z,10.22
2016-09-22T02:00:20.804Z,10.22
2016-09-22T02:01:01.344Z,10.23
2016-09-22T02:01:41.868Z,10.29
2016-09-22T02:02:22.412Z,10.23
2016-09-22T02:03:02.958Z,10.26
2016-09-22T02:03:43.492Z,10.18
2016-09-22T02:04:24.034Z,10.18
2016-09-22T02:05:04.569Z,10.22
2016-09-22T02:05:45.108Z,10.2
2016-09-22T02:06:25.648Z,10.22
2016-09-22T02:07:06.193Z,10.22
2016-09-22T02:07:46.732Z,10.22
2016-09-22T02:08:27.282Z,10.26
2016-09-22T02:09:07.818Z,10.26
2016-09-22T02:09:48.361Z,10.25
2016-09-22T02:10:28.895Z,10.22
2016-09-22T02:11:09.440Z,10.22
2016-09-22T02:11:49.995Z,10.2
2016-09-22T02:12:30.521Z,10.15
2016-09-22T02:13:11.066Z,10.17
2016-09-22T02:13:51.606Z,10.25
2016-09-22T02:14:32.149Z,10.17
2016-09-22T02:15:12.690Z,10.2
2016-09-22T02:15:53.226Z,10.18
2016-09-22T02:16:33.768Z,10.15
2016-09-22T02:17:14.302Z,10.14
2016-09-22T02:17:54.844Z,10.12
2016-09-22T02:18:35.373Z,10.15
2016-09-22T02:19:15.915Z,10.12
2016-09-22T02:19:56.447Z,10.12
2016-09-22T02:20:36.995Z,10.15
2016-09-22T02:21:17.536Z,10.15
2016-09-22T02:21:58.076Z,10.14
2016-09-22T02:22:38.623Z,10.07
2016-09-22T02:23:19.158Z,10.15
2016-09-22T02:23:59.701Z,10.12
2016-09-22T02:24:40.235Z,10.09
2016-09-22T02:25:20.778Z,10.14
2016-09-22T02:26:01.314Z,10.09
2016-09-22T02:26:41.855Z,10.08
2016-09-22T02:27:22.395Z,10.05
2016-09-22T02:28:02.940Z,10.04
2016-09-22T02:28:43.483Z,10.07
2016-09-22T02:29:24.032Z,10.07
2016-09-22T02:30:04.576Z,10.09
2016-09-22T02:30:45.120Z,10.08
2016-09-22T02:31:25.659Z,10.08
2016-09-22T02:32:06.192Z,10.01
2016-09-22T02:32:46.724Z,9.99
2016-09-22T02:33:27.271Z,10.01
2016-09-22T02:34:07.824Z,10.02
2016-09-22T02:34:48.362Z,10.12
2016-09-22T02:35:28.921Z,10.02
2016-09-22T02:36:09.460Z,10.08
2016-09-22T02:36:50.009Z,10.02
2016-09-22T02:37:30.551Z,10.05
2016-09-22T02:38:11.096Z,10.04
2016-09-22T02:38:51.616Z,9.99
2016-09-22T02:39:32.152Z,10.02
2016-09-22T02:40:12.690Z,10.04
2016-09-22T02:40:53.228Z,10.02
2016-09-22T02:41:33.771Z,10.02
2016-09-22T02:42:14.319Z,10.04
2016-09-22T02:42:54.867Z,10.05
2016-09-22T02:43:35.404Z,10.05
2016-09-22T02:44:15.948Z,10.05
2016-09-22T02:44:56.494Z,10.05
2016-09-22T02:45:37.040Z,10.02
2016-09-22T02:46:17.578Z,10.05
2016-09-22T02:46:58.100Z,10.04
2016-09-22T02:47:38.651Z,10.02
2016-09-22T02:48:19.190Z,10.04
2016-09-22T02:48:59.736Z,10.07
2016-09-22T02:49:40.276Z,10.08
2016-09-22T02:50:20.823Z,10.05
2016-09-22T02:51:01.367Z,10.04
2016-09-22T02:51:41.898Z,10.02
2016-09-22T02:52:22.435Z,10.05
2016-09-22T02:53:02.974Z,10.02
2016-09-22T02:53:43.529Z,10.07
2016-09-22T02:54:24.064Z,10.05
2016-09-22T02:55:04.608Z,10.02
2016-09-22T02:55:45.145Z,10.01
2016-09-22T02:56:25.684Z,9.99
2016-09-22T02:57:06.227Z,10.02
2016-09-22T02:57:46.777Z,10.04
2016-09-22T02:58:27.313Z,10.05
2016-09-22T02:59:07.854Z,10.02
2016-09-22T02:59:48.411Z,10.07
2016-09-22T03:00:28.953Z,10.02
2016-09-22T03:01:09.493Z,10.04
2016-09-22T03:01:50.036Z,9.99
2016-09-22T03:02:30.570Z,10.01
2016-09-22T03:03:11.111Z,9.96
2016-09-22T03:03:51.659Z,10.01
2016-09-22T03:04:32.193Z,9.97
2016-09-22T03:05:12.734Z,9.96
2016-09-22T03:05:53.275Z,10.04
2016-09-22T03:06:33.817Z,10.04
2016-09-22T03:07:14.344Z,10.01
2016-09-22T03:07:54.891Z,10.04
2016-09-22T03:08:35.425Z,9.99
2016-09-22T03:09:15.967Z,10.02
2016-09-22T03:09:56.510Z,10.02
2016-09-22T03:10:37.049Z,10.02
2016-09-22T03:11:17.585Z,10.08
2016-09-22T03:11:58.127Z,9.96
2016-09-22T03:12:38.671Z,9.97
2016-09-22T03:13:19.203Z,10.02
2016-09-22T03:13:59.745Z,10.04
2016-09-22T03:14:40.281Z,10.02
2016-09-22T03:15:20.817Z,9.99
2016-09-22T03:16:01.350Z,9.96
2016-09-22T03:16:41.895Z,9.97
2016-09-22T03:17:22.442Z,9.94
2016-09-22T03:18:02.982Z,10.02
2016-09-22T03:18:43.512Z,9.94
2016-09-22T03:19:24.044Z,9.97
2016-09-22T03:20:04.584Z,9.99
2016-09-22T03:20:45.126Z,9.99
2016-09-22T03:21:25.671Z,9.89
2016-09-22T03:22:06.209Z,9.9
2016-09-22T03:22:46.750Z,9.87
2016-09-22T03:23:27.430Z,9.89
2016-09-22T03:24:07.951Z,9.91
2016-09-22T03:24:48.488Z,9.9
2016-09-22T03:25:29.033Z,10.01
2016-09-22T03:26:09.577Z,9.89
2016-09-22T03:26:50.118Z,9.9
2016-09-22T03:27:30.661Z,9.94
2016-09-22T03:28:11.195Z,9.89
2016-09-22T03:28:51.725Z,9.89
2016-09-22T03:29:32.269Z,9.87
2016-09-22T03:30:12.812Z,9.9
2016-09-22T03:30:53.361Z,9.86
2016-09-22T03:31:33.927Z,9.84
2016-09-22T03:32:14.463Z,9.9
2016-09-22T03:32:55.012Z,9.87
2016-09-22T03:33:35.559Z,9.86
2016-09-22T03:34:16.099Z,9.84
2016-09-22T03:34:56.642Z,9.87
2016-09-22T03:35:37.179Z,9.76
2016-09-22T03:36:17.720Z,9.86
2016-09-22T03:36:58.255Z,9.86
2016-09-22T03:37:38.800Z,9.79
2016-09-22T03:38:19.339Z,9.76
2016-09-22T03:38:59.900Z,9.78
2016-09-22T03:39:40.421Z,9.79
2016-09-22T03:40:20.968Z,9.74
2016-09-22T03:41:01.504Z,9.83
2016-09-22T03:41:42.045Z,9.87
2016-09-22T03:42:22.593Z,9.81
2016-09-22T03:43:03.135Z,9.83
2016-09-22T03:43:43.661Z,9.75
2016-09-22T03:44:24.205Z,9.74
2016-09-22T03:45:04.748Z,9.86
2016-09-22T03:45:45.290Z,9.79
2016-09-22T03:46:25.841Z,9.83
2016-09-22T03:47:06.386Z,9.76
2016-09-22T03:47:46.925Z,9.83
2016-09-22T03:48:27.470Z,9.75
2016-09-22T03:49:08.021Z,9.86
2016-09-22T03:49:48.563Z,9.75
2016-09-22T03:50:29.105Z,9.89
2016-09-22T03:51:09.647Z,9.72
2016-09-22T03:51:50.176Z,9.74
2016-09-22T03:52:30.718Z,9.76
2016-09-22T03:53:11.262Z,9.86
2016-09-22T03:53:51.797Z,9.87
2016-09-22T03:54:32.341Z,9.81
2016-09-22T03:55:12.888Z,9.75
2016-09-22T03:55:53.433Z,9.83
2016-09-22T03:56:33.982Z,9.78
2016-09-22T03:57:14.621Z,9.74
2016-09-22T03:57:55.196Z,9.81
2016-09-22T03:58:35.739Z,9.81
2016-09-22T03:59:16.288Z,9.81
2016-09-22T03:59:56.828Z,9.76
2016-09-22T04:00:37.371Z,9.71
2016-09-22T04:01:17.918Z,9.74
2016-09-22T04:01:58.455Z,9.68
2016-09-22T04:02:38.995Z,9.65
2016-09-22T04:03:19.531Z,9.75
2016-09-22T04:04:00.094Z,9.75
2016-09-22T04:04:40.633Z,9.61
2016-09-22T04:05:21.179Z,9.65
2016-09-22T04:06:01.716Z,9.75
2016-09-22T04:06:42.366Z,9.65
2016-09-22T04:07:22.914Z,9.68
2016-09-22T04:08:03.458Z,9.65
2016-09-22T04:08:44.000Z,9.66
2016-09-22T04:09:24.545Z,9.65
2016-09-22T04:10:05.086Z,9.75
2016-09-22T04:10:45.628Z,9.66
2016-09-22T04:11:26.168Z,9.68
2016-09-22T04:12:06.708Z,9.68
2016-09-22T04:12:47.246Z,9.58
2016-09-22T04:13:27.783Z,9.66
2016-09-22T04:14:08.324Z,9.68
2016-09-22T04:14:48.871Z,9.66
2016-09-22T04:15:29.450Z,9.56
2016-09-22T04:16:09.994Z,9.6
2016-09-22T04:16:50.528Z,9.5
2016-09-22T04:17:31.076Z,9.57
2016-09-22T04:18:11.619Z,9.54
2016-09-22T04:18:52.161Z,9.51
2016-09-22T04:19:32.764Z,9.51
2016-09-22T04:20:13.307Z,9.54
2016-09-22T04:20:53.836Z,9.48
2016-09-22T04:21:34.371Z,9.54
2016-09-22T04:22:14.919Z,9.53
2016-09-22T04:22:55.462Z,9.53
2016-09-22T04:23:36.003Z,9.48
2016-09-22T04:24:16.544Z,9.5
2016-09-22T04:24:57.091Z,9.53
2016-09-22T04:25:37.624Z,9.51
2016-09-22T04:26:18.166Z,9.53
2016-09-22T04:26:58.703Z,9.54
2016-09-22T04:27:39.255Z,9.46
2016-09-22T04:28:19.784Z,9.46
2016-09-22T04:29:00.319Z,9.53
2016-09-22T04:29:40.854Z,9.47
2016-09-22T04:30:21.454Z,9.53
2016-09-22T04:31:01.971Z,9.47
2016-09-22T04:31:42.517Z,9.51
2016-09-22T04:32:23.264Z,9.5
2016-09-22T04:33:03.691Z,9.47
2016-09-22T04:33:44.230Z,9.43
2016-09-22T04:34:24.808Z,9.48
2016-09-22T04:35:05.269Z,9.4
2016-09-22T04:35:45.808Z,9.5
2016-09-22T04:36:26.355Z,9.4
2016-09-22T04:37:06.908Z,9.47
2016-09-22T04:37:47.482Z,9.48
2016-09-22T04:38:28.027Z,9.43
2016-09-22T04:39:08.573Z,9.4
2016-09-22T04:39:49.111Z,9.43
2016-09-22T04:40:29.656Z,9.5
2016-09-22T04:41:10.199Z,9.4
2016-09-22T04:41:50.745Z,9.43
2016-09-22T04:42:31.286Z,9.47
2016-09-22T04:43:11.823Z,9.4
2016-09-22T04:43:52.372Z,9.46
2016-09-22T04:44:32.899Z,9.42
2016-09-22T04:45:13.445Z,9.46
2016-09-22T04:45:53.984Z,9.39
2016-09-22T04:46:34.520Z,9.42
2016-09-22T04:47:15.062Z,9.48
2016-09-22T04:47:55.596Z,9.42
2016-09-22T04:48:36.134Z,9.42
2016-09-22T04:49:16.674Z,9.47
2016-09-22T04:49:57.212Z,9.42
2016-09-22T04:50:37.762Z,9.42
2016-09-22T04:51:18.308Z,9.46
2016-09-22T04:51:58.844Z,9.42
2016-09-22T04:52:39.390Z,9.42
2016-09-22T04:53:19.939Z,9.42
2016-09-22T04:54:00.479Z,9.35
2016-09-22T04:54:41.019Z,9.46
2016-09-22T04:55:21.564Z,9.42
2016-09-22T04:56:02.104Z,9.42
2016-09-22T04:56:42.647Z,9.33
2016-09-22T04:57:23.184Z,9.39
2016-09-22T04:58:03.728Z,9.4
2016-09-22T04:58:44.265Z,9.36
2016-09-22T04:59:24.807Z,9.42
2016-09-22T05:00:05.349Z,9.38
2016-09-22T05:00:45.893Z,9.46
2016-09-22T05:01:26.437Z,9.4
2016-09-22T05:02:06.982Z,9.4
2016-09-22T05:02:47.527Z,9.39
2016-09-22T05:03:28.062Z,9.42
2016-09-22T05:04:08.609Z,9.4
2016-09-22T05:04:49.148Z,9.42
2016-09-22T05:05:29.688Z,9.4
2016-09-22T05:06:10.218Z,9.42
2016-09-22T05:06:50.754Z,9.38
2016-09-22T05:07:31.301Z,9.46
2016-09-22T05:08:11.841Z,9.4
2016-09-22T05:08:52.383Z,9.38
2016-09-22T05:09:32.931Z,9.42
2016-09-22T05:10:13.479Z,9.36
2016-09-22T05:10:54.024Z,9.42
2016-09-22T05:11:34.563Z,9.42
2016-09-22T05:12:15.106Z,9.35
2016-09-22T05:12:55.643Z,9.4
2016-09-22T05:13:36.183Z,9.43
2016-09-22T05:14:16.725Z,9.32
2016-09-22T05:14:57.273Z,9.33
2016-09-22T05:15:37.811Z,9.38
2016-09-22T05:16:18.347Z,9.26
2016-09-22T05:16:58.872Z,9.32
2016-09-22T05:17:39.416Z,9.32
2016-09-22T05:18:19.939Z,9.29
2016-09-22T05:19:00.482Z,9.38
2016-09-22T05:19:41.022Z,9.38
2016-09-22T05:20:21.567Z,9.32
2016-09-22T05:21:02.118Z,9.31
2016-09-22T05:21:42.670Z,9.32
2016-09-22T05:22:23.237Z,9.32
2016-09-22T05:23:03.785Z,9.29
2016-09-22T05:23:44.318Z,9.32
2016-09-22T05:24:24.867Z,9.33
2016-09-22T05:25:05.402Z,9.28
2016-09-22T05:25:45.937Z,9.32
2016-09-22T05:26:26.478Z,9.36
2016-09-22T05:27:07.014Z,9.33
2016-09-22T05:27:47.559Z,9.31
2016-09-22T05:28:28.093Z,9.26
2016-09-22T05:29:08.665Z,9.33
2016-09-22T05:29:49.196Z,9.31
2016-09-22T05:30:29.744Z,9.35
2016-09-22T05:31:10.283Z,9.32
2016-09-22T05:31:50.828Z,9.31
2016-09-22T05:32:31.376Z,9.32
2016-09-22T05:33:11.917Z,9.33
2016-09-22T05:33:52.457Z,9.32
2016-09-22T05:34:32.995Z,9.31
2016-09-22T05:35:13.520Z,9.36
2016-09-22T05:35:54.061Z,9.29
2016-09-22T05:36:34.599Z,9.35
2016-09-22T05:37:15.142Z,9.31
2016-09-22T05:37:55.685Z,9.33
2016-09-22T05:38:36.252Z,9.33
2016-09-22T05:39:16.780Z,9.33
2016-09-22T05:39:57.316Z,9.36
2016-09-22T05:40:37.860Z,9.35
2016-09-22T05:41:18.420Z,9.36
2016-09-22T05:41:58.945Z,9.46
2016-09-22T05:42:39.477Z,9.38
2016-09-22T05:43:20.022Z,9.39
2016-09-22T05:44:00.548Z,9.38
2016-09-22T05:44:41.091Z,9.31
2016-09-22T05:45:21.638Z,9.39
2016-09-22T05:46:02.191Z,9.36
2016-09-22T05:46:42.730Z,9.42
2016-09-22T05:47:23.265Z,9.42
2016-09-22T05:48:03.789Z,9.46
2016-09-22T05:48:44.330Z,9.46
2016-09-22T05:49:24.864Z,9.43
2016-09-22T05:50:05.423Z,9.47
2016-09-22T05:50:45.953Z,9.46
2016-09-22T05:51:26.496Z,9.42
2016-09-22T05:52:07.037Z,9.38
2016-09-22T05:52:47.546Z,9.46
2016-09-22T05:53:28.089Z,9.46
2016-09-22T05:54:08.615Z,9.47
2016-09-22T05:54:49.165Z,9.42
2016-09-22T05:55:29.701Z,9.4
2016-09-22T05:56:10.250Z,9.48
2016-09-22T05:56:50.800Z,9.48
2016-09-22T05:57:31.342Z,9.51
2016-09-22T05:58:11.885Z,9.51
2016-09-22T05:58:52.423Z,9.5
2016-09-22T05:59:32.969Z,9.5
2016-09-22T06:00:13.490Z,9.56
2016-09-22T06:00:54.029Z,9.54
2016-09-22T06:01:34.576Z,9.56
2016-09-22T06:02:15.094Z,9.51
2016-09-22T06:02:55.634Z,9.57
2016-09-22T06:03:36.184Z,9.58
2016-09-22T06:04:16.719Z,9.57
2016-09-22T06:04:57.247Z,9.64
2016-09-22T06:05:37.789Z,9.6
2016-09-22T06:06:18.325Z,9.6
2016-09-22T06:06:58.868Z,9.61
2016-09-22T06:07:39.414Z,9.64
2016-09-22T06:08:19.959Z,9.65
2016-09-22T06:09:00.499Z,9.65
2016-09-22T06:09:41.045Z,9.56
2016-09-22T06:10:21.596Z,9.61
2016-09-22T06:11:02.135Z,9.61
2016-09-22T06:11:42.682Z,9.61
2016-09-22T06:12:23.218Z,9.66
2016-09-22T06:13:03.752Z,9.68
2016-09-22T06:13:44.290Z,9.68
2016-09-22T06:14:24.835Z,9.65
2016-09-22T06:15:05.373Z,9.69
2016-09-22T06:15:45.917Z,9.64
2016-09-22T06:16:26.453Z,9.65
2016-09-22T06:17:07.002Z,9.65
2016-09-22T06:19:21.289Z,9.76
2016-09-22T06:20:01.769Z,9.72
2016-09-22T06:20:42.307Z,9.75
2016-09-22T06:21:22.836Z,9.79
2016-09-22T06:22:03.385Z,9.76
2016-09-22T06:22:43.920Z,9.83
2016-09-22T06:23:24.453Z,9.72
2016-09-22T06:24:04.995Z,9.81
2016-09-22T06:24:45.516Z,9.75
2016-09-22T06:25:26.041Z,9.76
2016-09-22T06:26:06.581Z,9.74
2016-09-22T06:26:47.123Z,9.84
2016-09-22T06:27:27.671Z,9.81
2016-09-22T06:28:08.199Z,9.75
2016-09-22T06:28:48.741Z,9.84
2016-09-22T06:29:29.282Z,9.87
2016-09-22T06:30:09.814Z,9.72
2016-09-22T06:30:50.356Z,9.76
2016-09-22T06:31:30.893Z,9.72
2016-09-22T06:32:11.432Z,9.83
2016-09-22T06:32:51.964Z,9.78
2016-09-22T06:33:32.493Z,9.81
2016-09-22T06:34:13.016Z,9.83
2016-09-22T06:34:53.544Z,9.83
2016-09-22T06:35:34.085Z,9.83
2016-09-22T06:36:14.639Z,9.9
2016-09-22T06:36:55.175Z,9.83
2016-09-22T06:37:35.720Z,9.87
2016-09-22T06:38:16.261Z,9.87
2016-09-22T06:38:56.795Z,9.89
2016-09-22T06:39:37.331Z,9.93
2016-09-22T06:40:17.881Z,9.91
2016-09-22T06:40:58.400Z,9.87
2016-09-22T06:41:38.985Z,9.89
2016-09-22T06:42:19.509Z,9.94
2016-09-22T06:43:00.095Z,10.01
2016-09-22T06:43:40.627Z,9.87
2016-09-22T06:44:21.158Z,9.93
2016-09-22T06:45:01.698Z,9.99
2016-09-22T06:45:42.244Z,9.96
2016-09-22T06:46:22.791Z,10.01
2016-09-22T06:47:03.334Z,10.09
2016-09-22T06:47:43.876Z,10.02
2016-09-22T06:48:24.407Z,10.04
2016-09-22T06:49:04.936Z,10.07
2016-09-22T06:49:45.480Z,10.02
2016-09-22T06:50:26.002Z,10.05
2016-09-22T06:51:06.547Z,10.09
2016-09-22T06:51:47.095Z,10.2
2016-09-22T06:52:27.639Z,10.2
2016-09-22T06:53:08.176Z,10.18
2016-09-22T06:53:48.722Z,10.26
2016-09-22T06:54:29.274Z,10.25
2016-09-22T06:55:09.821Z,10.29
2016-09-22T06:55:50.368Z,10.3
2016-09-22T06:56:30.900Z,10.26
2016-09-22T06:57:11.433Z,10.34
2016-09-22T06:57:51.967Z,10.36
2016-09-22T06:58:32.507Z,10.33
2016-09-22T06:59:13.048Z,10.33
2016-09-22T06:59:53.587Z,10.33
2016-09-22T07:00:34.129Z,10.32
2016-09-22T07:01:14.664Z,10.4
2016-09-22T07:01:55.198Z,10.4
2016-09-22T07:02:35.739Z,10.38
2016-09-22T07:03:16.285Z,10.45
2016-09-22T07:03:56.808Z,10.47
2016-09-22T07:04:37.348Z,10.53
2016-09-22T07:05:17.888Z,10.59
2016-09-22T07:05:58.434Z,10.53
2016-09-22T07:06:38.972Z,10.48
2016-09-22T07:07:19.503Z,10.52
2016-09-22T07:08:00.137Z,10.61
2016-09-22T07:08:40.660Z,10.59
2016-09-22T07:09:21.203Z,10.67
2016-09-22T07:10:01.747Z,10.68
2016-09-22T07:10:42.253Z,10.68
2016-09-22T07:11:22.803Z,10.74
2016-09-22T07:12:03.360Z,10.79
2016-09-22T07:12:43.900Z,10.73
2016-09-22T07:13:24.438Z,10.79
2016-09-22T07:14:04.993Z,10.74
2016-09-22T07:14:45.531Z,10.81
2016-09-22T07:15:26.072Z,10.81
2016-09-22T07:16:06.628Z,10.84
2016-09-22T07:16:47.171Z,10.92
2016-09-22T07:17:27.712Z,10.89
2016-09-22T07:18:08.253Z,10.88
2016-09-22T07:18:48.786Z,10.94
2016-09-22T07:19:29.325Z,10.92
2016-09-22T07:20:09.845Z,11.07
2016-09-22T07:20:50.390Z,11.02
2016-09-22T07:21:30.926Z,11.07
2016-09-22T07:22:11.472Z,11.06
2016-09-22T07:22:52.020Z,11.07
2016-09-22T07:23:32.576Z,11.09
2016-09-22T07:24:13.124Z,11.07
2016-09-22T07:24:53.681Z,11.18
2016-09-22T07:25:34.227Z,11.1
2016-09-22T07:26:14.769Z,11.19
2016-09-22T07:26:55.310Z,11.22
2016-09-22T07:27:35.838Z,11.19
2016-09-22T07:28:16.371Z,11.28
2016-09-22T07:28:56.915Z,11.29
2016-09-22T07:29:37.449Z,11.28
2016-09-22T07:30:17.992Z,11.32
2016-09-22T07:30:58.531Z,11.42
2016-09-22T07:31:39.071Z,11.29
2016-09-22T07:32:19.614Z,11.35
2016-09-22T07:33:00.150Z,11.37
2016-09-22T07:33:40.676Z,11.42
2016-09-22T07:34:21.203Z,11.55
2016-09-22T07:35:01.759Z,11.52
2016-09-22T07:35:42.287Z,11.47
2016-09-22T07:36:22.825Z,11.51
2016-09-22T07:37:03.368Z,11.6
2016-09-22T07:37:43.911Z,11.51
2016-09-22T07:38:24.431Z,11.58
2016-09-22T07:39:04.975Z,11.6
2016-09-22T07:39:45.507Z,11.65
2016-09-22T07:40:26.038Z,11.73
2016-09-22T07:41:06.557Z,11.69
2016-09-22T07:41:47.085Z,11.79
2016-09-22T07:42:27.629Z,11.75
2016-09-22T07:43:08.163Z,11.79
2016-09-22T07:43:48.703Z,11.83
2016-09-22T07:44:29.252Z,11.86
2016-09-22T07:45:09.814Z,11.85
2016-09-22T07:45:50.350Z,11.91
2016-09-22T07:46:30.890Z,11.91
2016-09-22T07:47:11.430Z,12.1
2016-09-22T07:47:51.969Z,12.02
2016-09-22T07:48:32.513Z,12.09
2016-09-22T07:49:13.052Z,12.05
2016-09-22T07:49:53.589Z,12.16
2016-09-22T07:50:34.123Z,12.17
2016-09-22T07:51:14.670Z,12.14
2016-09-22T07:51:55.210Z,12.29
2016-09-22T07:52:35.762Z,12.27
2016-09-22T07:53:16.309Z,12.21
2016-09-22T07:53:56.853Z,12.32
2016-09-22T07:54:37.410Z,12.39
2016-09-22T07:55:17.941Z,12.35
2016-09-22T07:55:58.479Z,12.34
2016-09-22T07:56:39.020Z,12.45
2016-09-22T07:57:19.560Z,12.46
2016-09-22T07:58:00.105Z,12.54
2016-09-22T07:58:40.627Z,12.47
2016-09-22T07:59:21.170Z,12.54
2016-09-22T08:00:01.708Z,12.6
2016-09-22T08:00:42.250Z,12.64
2016-09-22T08:01:22.784Z,12.7
2016-09-22T08:02:03.343Z,12.68
2016-09-22T08:02:43.892Z,12.78
2016-09-22T08:03:24.439Z,12.82
2016-09-22T08:04:04.979Z,12.83
2016-09-22T08:04:45.509Z,12.85
2016-09-22T08:05:26.052Z,12.92
2016-09-22T08:06:06.597Z,12.96
2016-09-22T08:06:47.113Z,12.95
2016-09-22T08:07:27.656Z,12.93
2016-09-22T08:08:08.198Z,13.04
2016-09-22T08:08:48.750Z,13.05
2016-09-22T08:09:29.295Z,13.11
2016-09-22T08:10:09.848Z,13.11
2016-09-22T08:10:50.366Z,13.14
2016-09-22T08:11:30.911Z,13.2
2016-09-22T08:12:11.440Z,13.17
2016-09-22T08:12:51.986Z,13.26
2016-09-22T08:13:32.511Z,13.26
2016-09-22T08:14:13.050Z,13.26
2016-09-22T08:14:53.576Z,13.29
2016-09-22T08:15:34.109Z,13.45
2016-09-22T08:16:14.642Z,13.42
2016-09-22T08:16:55.192Z,13.45
2016-09-22T08:17:35.734Z,13.54
2016-09-22T08:18:16.276Z,13.57
2016-09-22T08:18:56.805Z,13.64
2016-09-22T08:19:37.358Z,13.64
2016-09-22T08:20:17.901Z,13.7
2016-09-22T08:20:58.451Z,13.81
2016-09-22T08:21:38.991Z,13.82
2016-09-22T08:22:19.538Z,13.88
2016-09-22T08:23:00.069Z,13.82
2016-09-22T08:23:40.602Z,13.99
2016-09-22T08:24:21.153Z,14
2016-09-22T08:25:01.700Z,14.04
2016-09-22T08:25:42.254Z,14.15
2016-09-22T08:26:22.782Z,14.15
2016-09-22T08:27:03.333Z,14.17
2016-09-22T08:27:43.906Z,14.24
2016-09-22T08:28:24.446Z,14.29
2016-09-22T08:29:04.989Z,14.36
2016-09-22T08:29:45.545Z,14.37
2016-09-22T08:30:26.096Z,14.42
2016-09-22T08:31:06.646Z,14.43
2016-09-22T08:31:47.196Z,14.55
2016-09-22T08:32:27.759Z,14.57
2016-09-22T08:33:08.281Z,14.73
2016-09-22T08:33:48.829Z,14.77
2016-09-22T08:34:29.374Z,14.77
2016-09-22T08:35:09.908Z,14.89
2016-09-22T08:35:50.436Z,14.96
2016-09-22T08:36:30.981Z,14.92
2016-09-22T08:37:11.515Z,15.02
2016-09-22T08:37:52.065Z,15.19
2016-09-22T08:38:32.622Z,15.25
2016-09-22T08:39:13.167Z,15.32
2016-09-22T08:39:53.698Z,15.5
2016-09-22T08:40:34.238Z,15.57
2016-09-22T08:41:14.797Z,15.82
2016-09-22T08:41:55.341Z,15.93
2016-09-22T08:42:35.883Z,15.93
2016-09-22T08:43:16.426Z,16.01
2016-09-22T08:43:56.964Z,16.05
2016-09-22T08:44:37.501Z,16.04
2016-09-22T08:45:18.045Z,15.97
2016-09-22T08:45:58.594Z,16.09
2016-09-22T08:46:39.124Z,16.12
2016-09-22T08:47:19.675Z,16.23
2016-09-22T08:48:00.227Z,16.25
2016-09-22T08:48:40.767Z,16.2
2016-09-22T08:49:21.318Z,16.27
2016-09-22T08:50:01.865Z,16.31
2016-09-22T08:50:42.419Z,16.35
2016-09-22T08:51:22.980Z,16.49
2016-09-22T08:52:03.523Z,16.57